Time;durP1;ratioP1;P1;durP2;ratioP2;P2;SDS_P1;SDS_P2;PMS_P1;PMS_P2;Temp;Humidity;BMP_temperature;BMP_pressure;BME280_temperature;BME280_humidity;BME280_pressure;Samples;Min_cycle;Max_cycle;Signal;HPM_P1;HPM_P2
2021/11/23 00:01:22;;;;;;;8.83;5.10;;;5.30;99.90;;;;;;5008070;28;20207;-79
2021/11/23 00:03:49;;;;;;;9.37;5.17;;;5.40;99.90;;;;;;5008466;28;20198;-82
2021/11/23 00:06:17;;;;;;;10.93;5.93;;;5.40;99.90;;;;;;5006896;28;20219;-78
2021/11/23 00:08:44;;;;;;;9.43;5.40;;;5.50;99.90;;;;;;5008160;28;20603;-78
2021/11/23 00:11:11;;;;;;;8.20;5.03;;;5.50;99.90;;;;;;5008683;28;20199;-77
2021/11/23 00:13:38;;;;;;;8.27;5.03;;;5.60;99.90;;;;;;5007606;28;20242;-77
2021/11/23 00:16:07;;;;;;;4.73;3.90;;;5.60;99.90;;;;;;5008024;28;20203;-79
2021/11/23 00:18:34;;;;;;;8.73;5.13;;;5.70;99.90;;;;;;5007497;28;20211;-78
2021/11/23 00:21:01;;;;;;;9.83;4.13;;;5.70;99.90;;;;;;5007893;28;20199;-80
2021/11/23 00:23:28;;;;;;;8.67;3.23;;;5.80;99.90;;;;;;5007050;28;20204;-79
2021/11/23 00:25:55;;;;;;;9.80;2.77;;;6.00;99.90;;;;;;5002540;28;20204;-80
2021/11/23 00:28:21;;;;;;;6.10;2.70;;;6.10;99.90;;;;;;4988567;28;20203;-80
2021/11/23 00:30:48;;;;;;;6.63;2.63;;;6.20;99.90;;;;;;5016207;28;20229;-80
2021/11/23 00:33:17;;;;;;;7.43;2.40;;;6.30;99.90;;;;;;5048233;28;20228;-80
2021/11/23 00:35:45;;;;;;;5.30;1.80;;;6.40;99.90;;;;;;5047382;28;20209;-80
2021/11/23 00:38:12;;;;;;;7.00;2.63;;;6.50;99.90;;;;;;5047690;28;20237;-80
2021/11/23 00:40:39;;;;;;;4.67;1.70;;;6.60;99.90;;;;;;5048373;28;20198;-79
2021/11/23 00:43:06;;;;;;;5.90;1.70;;;6.60;99.90;;;;;;5047235;28;20593;-80
2021/11/23 00:45:33;;;;;;;5.57;1.50;;;6.70;99.90;;;;;;5046684;28;20220;-79
2021/11/23 00:48:00;;;;;;;5.33;1.50;;;6.80;99.90;;;;;;5047457;28;20209;-80
2021/11/23 00:50:29;;;;;;;5.83;2.23;;;6.80;99.90;;;;;;5046783;28;20194;-81
2021/11/23 00:52:56;;;;;;;5.73;2.17;;;6.90;99.90;;;;;;5047564;28;20222;-81
2021/11/23 00:55:23;;;;;;;7.53;1.60;;;6.90;99.90;;;;;;5046890;28;20225;-80
2021/11/23 00:57:50;;;;;;;3.97;1.37;;;6.90;99.90;;;;;;5047538;28;20209;-80
2021/11/23 01:00:17;;;;;;;6.10;1.57;;;6.90;99.90;;;;;;5047416;28;20213;-80
2021/11/23 01:02:44;;;;;;;4.30;1.30;;;6.90;99.90;;;;;;5046109;28;20209;-80
2021/11/23 01:05:11;;;;;;;5.20;1.60;;;7.00;99.90;;;;;;5046066;28;20209;-80
2021/11/23 01:07:40;;;;;;;5.47;1.27;;;7.00;99.90;;;;;;5044987;28;20229;-77
2021/11/23 01:10:09;;;;;;;5.63;1.27;;;7.00;99.90;;;;;;5045007;28;20202;-79
2021/11/23 01:12:36;;;;;;;9.20;1.50;;;7.10;99.90;;;;;;5045193;28;20221;-79
2021/11/23 01:15:05;;;;;;;3.13;1.13;;;7.10;99.90;;;;;;5045890;28;20194;-79
2021/11/23 01:17:32;;;;;;;4.33;1.00;;;7.10;99.90;;;;;;5045573;28;20198;-77
2021/11/23 01:19:59;;;;;;;7.70;1.07;;;7.20;99.90;;;;;;5045777;28;20205;-77
2021/11/23 01:22:26;;;;;;;4.93;1.17;;;7.20;99.90;;;;;;5045744;28;20221;-78
2021/11/23 01:24:55;;;;;;;7.17;1.03;;;7.30;99.90;;;;;;5045528;28;20202;-77
2021/11/23 01:27:21;;;;;;;4.60;0.90;;;7.50;99.90;;;;;;5045847;28;20209;-79
2021/11/23 01:29:48;;;;;;;5.03;0.80;;;7.50;99.90;;;;;;5046082;28;20237;-79
2021/11/23 01:32:15;;;;;;;4.47;1.63;;;7.70;99.90;;;;;;5044587;28;20225;-79
2021/11/23 01:34:42;;;;;;;6.00;1.23;;;7.70;99.90;;;;;;5046559;28;20206;-82
2021/11/23 01:37:09;;;;;;;7.13;1.10;;;7.90;99.90;;;;;;5045974;28;20206;-81
2021/11/23 01:39:36;;;;;;;7.43;1.00;;;8.00;99.90;;;;;;5043829;28;20958;-80
2021/11/23 01:42:05;;;;;;;4.17;1.63;;;8.10;99.90;;;;;;5046310;28;20205;-79
2021/11/23 01:44:31;;;;;;;8.57;1.40;;;8.10;99.90;;;;;;5045467;28;20622;-77
2021/11/23 01:46:58;;;;;;;3.57;0.70;;;8.10;99.90;;;;;;5046588;28;20206;-79
2021/11/23 01:49:25;;;;;;;4.27;1.13;;;8.10;99.90;;;;;;5046309;28;20244;-76
2021/11/23 01:51:52;;;;;;;5.77;1.00;;;8.10;99.90;;;;;;5046006;28;20190;-75
2021/11/23 01:54:19;;;;;;;8.10;1.60;;;8.20;99.90;;;;;;5045110;28;20226;-79
2021/11/23 01:56:46;;;;;;;4.23;1.17;;;8.20;99.90;;;;;;5045102;28;20190;-78
2021/11/23 01:59:15;;;;;;;6.23;1.10;;;8.30;99.90;;;;;;5046631;28;20216;-79
2021/11/23 02:01:42;;;;;;;2.13;0.70;;;8.30;99.90;;;;;;5046744;28;20910;-79
2021/11/23 02:04:09;;;;;;;9.83;0.90;;;8.30;99.90;;;;;;5046203;28;20241;-79
2021/11/23 02:06:35;;;;;;;4.87;0.83;;;8.40;99.90;;;;;;5046153;28;20232;-80
2021/11/23 02:09:03;;;;;;;2.40;0.97;;;8.40;99.90;;;;;;5046118;28;20213;-78
2021/11/23 02:11:30;;;;;;;4.47;0.90;;;8.40;99.90;;;;;;5044923;28;20244;-79
2021/11/23 02:13:58;;;;;;;3.47;0.80;;;8.50;99.90;;;;;;5044592;28;20229;-77
2021/11/23 02:16:26;;;;;;;8.10;1.10;;;8.50;99.90;;;;;;5045182;28;20240;-79
2021/11/23 02:18:53;;;;;;;4.07;1.03;;;8.60;99.90;;;;;;5045256;28;20190;-80
2021/11/23 02:21:21;;;;;;;7.80;1.40;;;8.60;99.90;;;;;;5044607;28;20230;-79
2021/11/23 02:23:48;;;;;;;7.13;1.40;;;8.70;99.90;;;;;;5046167;28;20500;-79
2021/11/23 02:26:15;;;;;;;11.00;1.50;;;8.70;99.90;;;;;;5046081;28;20205;-80
2021/11/23 02:28:42;;;;;;;7.97;1.47;;;8.70;99.90;;;;;;5044840;28;20259;-79
2021/11/23 02:31:10;;;;;;;5.87;1.20;;;8.80;99.90;;;;;;5044843;28;20242;-80
2021/11/23 02:33:38;;;;;;;6.17;1.47;;;8.90;99.90;;;;;;5044147;28;21109;-76
2021/11/23 02:36:08;;;;;;;6.47;1.13;;;8.90;99.90;;;;;;5045244;28;20210;-79
2021/11/23 02:38:38;;;;;;;6.50;1.53;;;9.00;99.90;;;;;;5044179;28;20221;-79
2021/11/23 02:41:06;;;;;;;12.70;2.20;;;9.00;99.90;;;;;;5044174;28;20949;-77
2021/11/23 02:43:33;;;;;;;6.50;1.10;;;9.00;99.90;;;;;;5044109;28;20226;-78
2021/11/23 02:46:00;;;;;;;13.17;2.87;;;9.00;99.90;;;;;;5044469;28;20228;-78
2021/11/23 02:48:27;;;;;;;8.93;1.63;;;9.10;99.90;;;;;;5044903;28;20212;-78
2021/11/23 02:50:59;;;;;;;6.23;1.43;;;9.20;99.90;;;;;;5047400;28;20209;-77
2021/11/23 02:53:26;;;;;;;9.67;2.03;;;9.20;99.90;;;;;;5046633;28;20234;-78
2021/11/23 02:55:54;;;;;;;7.23;1.30;;;9.20;99.90;;;;;;5045693;28;20637;-78
2021/11/23 02:58:21;;;;;;;6.60;1.10;;;9.20;99.90;;;;;;5045786;28;20206;-78
2021/11/23 03:00:49;;;;;;;6.00;1.37;;;9.30;99.90;;;;;;5044740;28;20212;-78
2021/11/23 03:03:16;;;;;;;6.33;1.77;;;9.40;99.90;;;;;;5043544;28;20246;-77
2021/11/23 03:05:43;;;;;;;7.53;1.30;;;9.50;99.90;;;;;;5044555;28;20221;-79
2021/11/23 03:08:10;;;;;;;12.30;1.60;;;9.40;99.90;;;;;;5044998;28;20205;-78
2021/11/23 03:10:37;;;;;;;8.60;1.17;;;9.40;99.90;;;;;;5043656;28;20209;-79
2021/11/23 03:13:05;;;;;;;7.27;2.00;;;9.40;99.90;;;;;;5043881;28;20221;-78
2021/11/23 03:15:32;;;;;;;9.97;1.40;;;9.40;99.90;;;;;;5043823;28;20224;-78
2021/11/23 03:18:00;;;;;;;10.93;1.30;;;9.40;99.90;;;;;;5044289;28;20541;-78
2021/11/23 03:20:27;;;;;;;6.23;2.13;;;9.30;99.90;;;;;;5044983;28;20202;-79
2021/11/23 03:22:56;;;;;;;6.93;1.33;;;9.40;99.90;;;;;;5044022;28;20222;-77
2021/11/23 03:25:24;;;;;;;6.50;1.33;;;9.40;99.90;;;;;;5045057;28;20205;-78
2021/11/23 03:27:51;;;;;;;7.53;1.20;;;9.40;99.90;;;;;;5044213;28;20205;-79
2021/11/23 03:30:24;;;;;;;13.40;2.17;;;9.40;99.90;;;;;;5044155;28;20241;-79
2021/11/23 03:32:53;;;;;;;12.03;1.63;;;9.40;99.90;;;;;;5045498;28;20221;-80
2021/11/23 03:35:21;;;;;;;9.20;1.70;;;9.40;99.90;;;;;;5048829;28;20669;-80
2021/11/23 03:37:49;;;;;;;7.93;1.33;;;9.40;99.90;;;;;;5049058;28;20528;-79
2021/11/23 03:40:16;;;;;;;7.17;1.40;;;9.50;99.90;;;;;;5049454;28;20230;-81
2021/11/23 03:42:43;;;;;;;10.10;1.67;;;9.50;99.90;;;;;;5048238;28;20209;-80
2021/11/23 03:45:11;;;;;;;12.43;2.00;;;9.50;99.90;;;;;;5047684;28;20206;-80
2021/11/23 03:47:39;;;;;;;12.80;2.27;;;9.50;99.90;;;;;;5047020;28;20210;-78
2021/11/23 03:50:11;;;;;;;6.83;1.50;;;9.50;99.90;;;;;;5048059;28;20206;-78
2021/11/23 03:52:38;;;;;;;9.40;1.80;;;9.50;99.90;;;;;;5047378;28;20201;-78
2021/11/23 03:55:06;;;;;;;8.63;1.73;;;9.50;99.90;;;;;;5047498;28;20213;-79
2021/11/23 03:57:33;;;;;;;12.17;1.60;;;9.50;99.90;;;;;;5047819;28;20870;-79
2021/11/23 04:00:00;;;;;;;7.23;1.47;;;9.50;99.90;;;;;;5046400;28;20605;-79
2021/11/23 04:02:27;;;;;;;8.47;1.50;;;9.50;99.90;;;;;;5046901;28;20216;-78
2021/11/23 04:04:55;;;;;;;12.73;1.80;;;9.50;99.90;;;;;;5048120;28;20198;-77
2021/11/23 04:07:22;;;;;;;8.87;2.17;;;9.50;99.90;;;;;;5046466;28;20191;-78
2021/11/23 04:09:49;;;;;;;6.07;1.97;;;9.50;99.90;;;;;;5046932;28;20985;-79
2021/11/23 04:12:17;;;;;;;8.80;1.90;;;9.60;99.90;;;;;;5046312;28;20860;-77
2021/11/23 04:14:44;;;;;;;11.30;1.80;;;9.60;99.90;;;;;;5046955;28;20228;-81
2021/11/23 04:17:11;;;;;;;8.63;1.47;;;9.60;99.90;;;;;;5047035;28;20212;-78
2021/11/23 04:19:39;;;;;;;9.37;1.90;;;9.60;99.90;;;;;;5046876;28;20202;-78
2021/11/23 04:22:08;;;;;;;12.60;1.90;;;9.60;99.90;;;;;;5047657;28;20225;-78
2021/11/23 04:24:35;;;;;;;9.73;1.80;;;9.60;99.90;;;;;;5047692;28;20201;-78
2021/11/23 04:27:02;;;;;;;7.63;1.60;;;9.60;99.90;;;;;;5046497;28;20205;-81
2021/11/23 04:29:29;;;;;;;13.57;1.93;;;9.70;99.90;;;;;;5027503;28;20206;-80
2021/11/23 04:31:56;;;;;;;8.47;1.73;;;9.70;99.90;;;;;;5027034;28;20195;-77
2021/11/23 04:34:23;;;;;;;13.20;2.20;;;9.80;99.90;;;;;;5026608;28;20222;-77
2021/11/23 04:36:50;;;;;;;9.30;1.47;;;9.90;99.90;;;;;;5038878;28;20614;-81
2021/11/23 04:39:18;;;;;;;10.60;2.33;;;9.90;99.90;;;;;;5046549;28;20205;-81
2021/11/23 04:41:45;;;;;;;5.87;1.43;;;9.90;99.90;;;;;;5046754;28;20685;-80
2021/11/23 04:44:11;;;;;;;7.47;1.60;;;9.90;99.90;;;;;;5047238;28;20209;-77
2021/11/23 04:46:38;;;;;;;6.43;1.43;;;9.90;99.90;;;;;;5047179;28;20287;-80
2021/11/23 04:49:06;;;;;;;6.20;1.40;;;9.80;99.90;;;;;;5046974;28;20220;-80
2021/11/23 04:51:33;;;;;;;8.50;1.20;;;9.80;99.90;;;;;;5046612;28;20205;-79
2021/11/23 04:54:00;;;;;;;4.90;1.00;;;9.70;99.90;;;;;;5047875;28;20226;-77
2021/11/23 04:56:28;;;;;;;6.53;1.00;;;9.70;99.90;;;;;;5046520;28;20729;-80
2021/11/23 04:58:55;;;;;;;3.80;1.10;;;9.70;99.90;;;;;;5047587;28;20214;-80
2021/11/23 05:01:21;;;;;;;2.83;0.70;;;9.60;99.90;;;;;;5044916;28;20617;-81
2021/11/23 05:03:48;;;;;;;1.97;0.93;;;9.60;99.90;;;;;;5048328;28;20198;-80
2021/11/23 05:06:15;;;;;;;2.53;0.90;;;9.60;99.90;;;;;;5047515;28;20215;-81
2021/11/23 05:08:42;;;;;;;2.43;0.70;;;9.60;99.90;;;;;;5047468;28;20240;-82
2021/11/23 05:11:10;;;;;;;8.73;1.00;;;9.50;99.90;;;;;;5047688;28;20210;-80
2021/11/23 05:13:40;;;;;;;4.87;1.40;;;9.50;99.90;;;;;;5047467;28;20258;-81
2021/11/23 05:16:08;;;;;;;7.17;1.40;;;9.50;99.90;;;;;;5046901;28;20289;-81
2021/11/23 05:18:35;;;;;;;8.37;1.73;;;9.50;99.90;;;;;;5047309;28;20205;-80
2021/11/23 05:21:02;;;;;;;5.80;1.30;;;9.60;99.90;;;;;;5047175;28;20198;-80
2021/11/23 05:23:29;;;;;;;7.97;1.43;;;9.60;99.90;;;;;;5046785;28;20218;-80
2021/11/23 05:25:56;;;;;;;7.30;1.70;;;9.60;99.90;;;;;;5047566;28;20212;-80
2021/11/23 05:28:23;;;;;;;3.97;1.00;;;9.60;99.90;;;;;;5045615;28;20206;-79
2021/11/23 05:30:52;;;;;;;7.13;1.30;;;9.50;99.90;;;;;;5045483;28;20254;-77
2021/11/23 05:33:22;;;;;;;4.40;1.23;;;9.50;99.90;;;;;;5044768;28;20206;-78
2021/11/23 05:35:50;;;;;;;7.40;1.83;;;9.50;99.90;;;;;;5045447;28;20201;-78
2021/11/23 05:38:17;;;;;;;8.17;1.77;;;9.40;99.90;;;;;;5045088;28;20206;-80
2021/11/23 05:40:45;;;;;;;10.00;1.40;;;9.30;99.90;;;;;;5045453;28;20194;-78
2021/11/23 05:43:12;;;;;;;7.70;1.40;;;9.30;99.90;;;;;;5045736;28;20868;-78
2021/11/23 05:45:39;;;;;;;6.20;1.40;;;9.20;99.90;;;;;;5045500;28;20193;-79
2021/11/23 05:48:08;;;;;;;5.10;1.37;;;9.10;99.90;;;;;;5046100;28;20209;-78
2021/11/23 05:50:35;;;;;;;9.20;1.60;;;9.10;99.90;;;;;;5044930;28;20905;-78
2021/11/23 05:53:03;;;;;;;4.27;0.93;;;9.10;99.90;;;;;;5044934;28;20202;-80
2021/11/23 05:55:30;;;;;;;4.03;1.10;;;9.00;99.90;;;;;;5045424;28;20236;-76
2021/11/23 05:57:57;;;;;;;6.37;1.53;;;9.00;99.90;;;;;;5045128;28;20194;-76
2021/11/23 06:00:24;;;;;;;7.43;2.03;;;9.00;99.90;;;;;;5045079;28;20206;-79
2021/11/23 06:02:52;;;;;;;6.27;1.17;;;9.00;99.90;;;;;;5045693;28;20632;-77
2021/11/23 06:05:20;;;;;;;12.03;2.23;;;9.00;99.90;;;;;;5044133;28;20202;-77
2021/11/23 06:07:47;;;;;;;8.87;1.90;;;9.00;99.90;;;;;;5045717;28;20212;-79
2021/11/23 06:10:14;;;;;;;9.10;2.00;;;9.00;99.90;;;;;;5046022;28;20251;-80
2021/11/23 06:12:41;;;;;;;10.90;1.83;;;9.00;99.90;;;;;;5044499;28;20512;-80
2021/11/23 06:15:10;;;;;;;9.90;2.07;;;9.00;99.90;;;;;;5045603;28;20224;-80
2021/11/23 06:17:38;;;;;;;6.10;1.57;;;9.10;99.90;;;;;;5045872;28;20197;-80
2021/11/23 06:20:06;;;;;;;7.97;1.40;;;9.10;99.90;;;;;;5044938;28;20216;-79
2021/11/23 06:22:35;;;;;;;7.87;1.67;;;9.00;99.90;;;;;;5045302;28;20228;-79
2021/11/23 06:25:03;;;;;;;11.77;1.53;;;9.10;99.90;;;;;;5044946;28;20249;-78
2021/11/23 06:27:30;;;;;;;9.53;1.80;;;9.10;99.90;;;;;;5044164;28;20602;-77
2021/11/23 06:29:58;;;;;;;10.33;1.60;;;9.10;99.90;;;;;;5044772;28;20649;-78
2021/11/23 06:32:25;;;;;;;5.23;1.30;;;9.10;99.90;;;;;;5044296;28;20190;-78
2021/11/23 06:34:52;;;;;;;7.20;1.50;;;9.10;99.90;;;;;;5044589;28;20225;-81
2021/11/23 06:37:19;;;;;;;9.10;1.67;;;9.10;99.90;;;;;;5046457;28;20205;-80
2021/11/23 06:39:47;;;;;;;8.27;1.67;;;9.20;99.90;;;;;;5046025;28;20386;-80
2021/11/23 06:42:14;;;;;;;10.83;1.47;;;9.20;99.90;;;;;;5046192;28;20198;-81
2021/11/23 06:44:41;;;;;;;5.60;1.17;;;9.20;99.90;;;;;;5046923;28;20201;-80
2021/11/23 06:47:08;;;;;;;6.23;1.63;;;9.40;99.90;;;;;;5044961;28;20201;-79
2021/11/23 06:49:35;;;;;;;6.33;1.53;;;9.30;99.90;;;;;;5046023;28;20210;-80
2021/11/23 06:52:01;;;;;;;4.73;1.30;;;9.30;99.90;;;;;;5045770;28;20213;-81
2021/11/23 06:54:28;;;;;;;5.83;1.83;;;9.30;99.90;;;;;;5044492;28;20658;-79
2021/11/23 06:56:57;;;;;;;8.67;1.30;;;9.30;99.90;;;;;;5044058;28;20220;-78
2021/11/23 06:59:24;;;;;;;4.50;1.07;;;9.30;99.90;;;;;;5043566;28;20241;-77
2021/11/23 07:01:51;;;;;;;9.97;1.57;;;9.20;99.90;;;;;;5043891;28;20911;-77
2021/11/23 07:04:18;;;;;;;5.43;1.10;;;9.20;99.90;;;;;;5044365;28;20209;-78
2021/11/23 07:06:46;;;;;;;2.53;1.10;;;9.20;99.90;;;;;;5044583;28;20213;-77
2021/11/23 07:09:13;;;;;;;4.63;1.10;;;9.10;99.90;;;;;;5045198;28;20683;-79
2021/11/23 07:11:40;;;;;;;5.03;1.47;;;9.10;99.90;;;;;;5048984;28;20201;-78
2021/11/23 07:14:10;;;;;;;3.60;1.37;;;9.10;99.90;;;;;;5048255;28;20554;-79
2021/11/23 07:16:37;;;;;;;3.93;1.40;;;9.10;99.90;;;;;;5030450;28;20202;-79
2021/11/23 07:19:04;;;;;;;2.83;0.87;;;9.00;99.90;;;;;;5048458;28;20216;-80
2021/11/23 07:21:31;;;;;;;6.47;1.40;;;9.00;99.90;;;;;;5048275;28;20226;-79
2021/11/23 07:23:58;;;;;;;4.47;1.23;;;9.00;99.90;;;;;;5048357;28;20201;-78
2021/11/23 07:26:25;;;;;;;9.67;2.90;;;9.00;99.90;;;;;;5047750;28;20205;-78
2021/11/23 07:28:52;;;;;;;6.30;1.23;;;9.00;99.90;;;;;;5048079;28;20213;-77
2021/11/23 07:31:22;;;;;;;6.37;2.23;;;9.30;99.90;;;;;;5047017;28;20233;-77
2021/11/23 07:33:48;;;;;;;6.30;2.20;;;9.40;99.90;;;;;;5048589;28;20198;-78
2021/11/23 07:36:17;;;;;;;7.07;1.40;;;9.40;99.90;;;;;;5047519;28;20661;-80
2021/11/23 07:38:44;;;;;;;8.23;1.50;;;9.50;99.90;;;;;;5048201;28;20376;-79
2021/11/23 07:41:11;;;;;;;6.17;1.70;;;9.50;99.90;;;;;;5047465;28;20216;-80
2021/11/23 07:43:40;;;;;;;6.57;1.10;;;9.50;99.90;;;;;;5021781;28;20213;-79
2021/11/23 07:46:07;;;;;;;5.50;1.30;;;9.50;99.90;;;;;;5048104;28;20201;-79
2021/11/23 07:48:37;;;;;;;6.03;1.83;;;9.50;99.90;;;;;;5047452;28;20217;-78
2021/11/23 07:51:04;;;;;;;6.87;1.70;;;9.60;99.90;;;;;;5047465;28;20202;-79
2021/11/23 07:53:31;;;;;;;7.80;1.77;;;9.50;99.90;;;;;;5048596;28;20202;-80
2021/11/23 07:55:59;;;;;;;5.67;1.57;;;9.50;99.90;;;;;;5048309;28;20241;-80
2021/11/23 07:58:26;;;;;;;6.60;2.03;;;9.50;99.90;;;;;;5044239;28;20206;-80
2021/11/23 08:00:53;;;;;;;6.93;1.60;;;9.40;99.90;;;;;;5034467;28;20343;-80
2021/11/23 08:03:20;;;;;;;5.73;1.40;;;9.40;99.90;;;;;;5047381;28;20205;-80
2021/11/23 08:05:48;;;;;;;3.03;1.20;;;9.40;99.90;;;;;;5044977;28;20205;-80
2021/11/23 08:08:15;;;;;;;2.67;1.20;;;9.40;99.90;;;;;;5027412;28;20206;-80
2021/11/23 08:10:43;;;;;;;6.73;1.17;;;9.40;99.90;;;;;;5028099;28;20210;-80
2021/11/23 08:13:09;;;;;;;2.77;0.80;;;9.40;99.90;;;;;;5036930;28;20209;-80
2021/11/23 08:15:37;;;;;;;5.43;1.07;;;9.40;99.90;;;;;;5047794;28;20590;-79
2021/11/23 08:18:05;;;;;;;2.07;0.80;;;9.30;99.90;;;;;;5047209;28;20901;-78
2021/11/23 08:20:32;;;;;;;2.50;0.90;;;9.30;99.90;;;;;;5046622;28;20202;-79
2021/11/23 08:23:01;;;;;;;5.00;1.43;;;9.30;99.90;;;;;;5046607;28;20230;-81
2021/11/23 08:25:28;;;;;;;5.27;1.40;;;9.40;99.90;;;;;;5046032;28;20221;-77
2021/11/23 08:27:55;;;;;;;6.10;1.50;;;9.40;99.90;;;;;;5047069;28;20213;-78
2021/11/23 08:30:22;;;;;;;5.83;1.43;;;9.40;99.90;;;;;;5046102;28;20234;-78
2021/11/23 08:32:50;;;;;;;7.07;1.43;;;9.40;99.90;;;;;;5045928;28;20209;-77
2021/11/23 08:35:18;;;;;;;3.93;1.17;;;9.50;99.90;;;;;;5045982;28;20229;-76
2021/11/23 08:37:44;;;;;;;6.30;0.93;;;9.60;99.90;;;;;;5047238;28;20206;-77
2021/11/23 08:40:13;;;;;;;7.23;1.30;;;9.70;99.90;;;;;;5046276;28;20209;-79
2021/11/23 08:42:40;;;;;;;6.90;1.77;;;9.80;99.90;;;;;;5047023;28;20914;-80
2021/11/23 08:45:08;;;;;;;5.70;1.17;;;9.80;99.90;;;;;;5047210;28;20194;-76
2021/11/23 08:47:35;;;;;;;5.63;1.37;;;9.80;99.90;;;;;;5046244;28;20503;-76
2021/11/23 08:50:03;;;;;;;2.73;0.90;;;9.80;99.90;;;;;;5045929;28;20703;-77
2021/11/23 08:52:29;;;;;;;6.50;1.00;;;9.90;99.90;;;;;;5046839;28;20209;-78
2021/11/23 08:54:56;;;;;;;7.33;1.50;;;9.90;99.90;;;;;;5046909;28;20241;-77
2021/11/23 08:57:25;;;;;;;5.67;1.23;;;9.90;99.90;;;;;;5046705;28;20198;-79
2021/11/23 09:00:05;;;;;;;7.87;1.20;;;9.90;99.90;;;;;;5046528;28;20221;-77
2021/11/23 09:02:32;;;;;;;6.60;1.17;;;9.90;99.90;;;;;;5045984;28;20302;-79
2021/11/23 09:04:59;;;;;;;4.13;1.10;;;10.00;99.90;;;;;;5046941;28;20513;-80
2021/11/23 09:07:26;;;;;;;3.33;1.00;;;10.00;99.90;;;;;;5043797;28;20212;-80
2021/11/23 09:09:53;;;;;;;4.80;1.17;;;10.10;99.90;;;;;;5047406;28;20213;-80
2021/11/23 09:12:20;;;;;;;5.03;0.90;;;10.20;99.90;;;;;;5046436;28;20356;-80
2021/11/23 09:14:48;;;;;;;7.23;1.53;;;10.20;99.90;;;;;;5046138;28;20233;-80
2021/11/23 09:17:15;;;;;;;2.93;1.20;;;10.20;99.90;;;;;;5046795;28;20209;-80
2021/11/23 09:19:42;;;;;;;4.93;0.90;;;10.30;99.90;;;;;;5046783;28;20206;-77
2021/11/23 09:22:08;;;;;;;4.13;0.90;;;10.30;99.90;;;;;;5045598;28;20252;-77
2021/11/23 09:24:36;;;;;;;5.03;0.93;;;10.20;99.90;;;;;;5046145;28;20217;-80
2021/11/23 09:27:03;;;;;;;4.60;1.23;;;10.30;99.90;;;;;;5046217;28;20217;-80
2021/11/23 09:29:30;;;;;;;6.30;0.93;;;10.30;99.90;;;;;;5045443;28;20206;-78
2021/11/23 09:31:59;;;;;;;3.23;0.90;;;10.30;99.90;;;;;;5045662;28;20598;-78
2021/11/23 09:34:26;;;;;;;4.50;0.97;;;10.40;99.90;;;;;;5046641;28;20208;-78
2021/11/23 09:36:54;;;;;;;3.53;0.93;;;10.50;99.90;;;;;;5045749;28;20209;-80
2021/11/23 09:39:21;;;;;;;6.17;1.23;;;10.50;99.90;;;;;;5044580;28;20210;-80
2021/11/23 09:41:48;;;;;;;11.57;1.77;;;10.50;99.90;;;;;;5047452;28;20848;-79
2021/11/23 09:44:16;;;;;;;5.77;1.13;;;10.50;99.90;;;;;;5047961;28;20198;-82
2021/11/23 09:46:43;;;;;;;7.93;1.50;;;10.60;99.90;;;;;;5047845;28;20201;-82
2021/11/23 09:49:11;;;;;;;5.40;1.60;;;10.70;99.90;;;;;;5046980;28;20202;-80
2021/11/23 09:51:39;;;;;;;6.30;1.30;;;10.70;99.90;;;;;;5044754;28;20204;-78
2021/11/23 09:54:08;;;;;;;7.07;1.57;;;10.70;99.90;;;;;;5046189;28;20933;-78
2021/11/23 09:56:36;;;;;;;3.67;1.10;;;10.70;99.90;;;;;;5045679;28;20604;-77
2021/11/23 09:59:03;;;;;;;3.23;1.03;;;10.60;99.90;;;;;;5045245;28;20216;-79
2021/11/23 10:01:32;;;;;;;6.27;1.30;;;10.60;99.90;;;;;;5045745;28;20267;-78
2021/11/23 10:04:05;;;;;;;5.63;1.10;;;10.60;99.90;;;;;;5046702;28;20205;-77
2021/11/23 10:06:33;;;;;;;6.50;1.40;;;10.60;99.90;;;;;;5046305;28;20196;-81
2021/11/23 10:09:00;;;;;;;4.40;1.20;;;10.50;99.90;;;;;;5046404;28;20213;-81
2021/11/23 10:11:30;;;;;;;5.13;1.50;;;10.50;99.90;;;;;;5046478;28;20772;-81
2021/11/23 10:13:59;;;;;;;5.73;1.40;;;10.60;99.90;;;;;;5046051;28;20605;-81
2021/11/23 10:16:38;;;;;;;9.73;1.83;;;10.60;99.90;;;;;;5045987;28;20225;-81
2021/11/23 10:19:08;;;;;;;9.33;2.40;;;10.60;99.90;;;;;;5045837;28;20205;-82
2021/11/23 10:21:37;;;;;;;9.07;1.97;;;10.60;99.90;;;;;;5046243;28;20268;-80
2021/11/23 10:24:03;;;;;;;9.47;2.13;;;10.60;99.90;;;;;;5045418;28;20198;-77
2021/11/23 10:26:32;;;;;;;5.80;1.50;;;10.60;99.90;;;;;;5045047;28;20282;-78
2021/11/23 10:29:01;;;;;;;7.87;1.67;;;10.70;99.90;;;;;;5046673;28;20182;-77
2021/11/23 10:31:30;;;;;;;8.27;1.70;;;10.80;99.90;;;;;;5045904;28;20239;-77
2021/11/23 10:33:58;;;;;;;7.50;1.30;;;10.80;99.90;;;;;;5046360;28;20748;-79
2021/11/23 10:36:29;;;;;;;8.27;2.07;;;11.00;99.90;;;;;;5047251;28;20257;-80
2021/11/23 10:39:08;;;;;;;9.83;1.50;;;11.10;99.90;;;;;;5046693;28;20193;-78
2021/11/23 10:41:35;;;;;;;7.63;1.77;;;11.10;99.90;;;;;;5046310;28;20549;-79
2021/11/23 10:44:03;;;;;;;5.70;1.37;;;11.20;99.90;;;;;;5046643;28;20233;-81
2021/11/23 10:46:32;;;;;;;4.47;1.17;;;11.20;99.90;;;;;;5047224;28;20198;-82
2021/11/23 10:49:01;;;;;;;4.77;1.17;;;11.20;99.90;;;;;;5048058;28;20225;-81
2021/11/23 10:51:38;;;;;;;2.57;0.83;;;11.20;99.90;;;;;;5047149;28;20210;-78
2021/11/23 10:54:18;;;;;;;5.60;1.17;;;11.10;99.90;;;;;;5046722;28;20193;-79
2021/11/23 10:56:59;;;;;;;6.67;1.10;;;11.10;99.90;;;;;;5046471;28;20275;-84
2021/11/23 10:59:26;;;;;;;4.63;2.23;;;11.00;99.90;;;;;;5047424;28;20516;-81
2021/11/23 11:01:53;;;;;;;2.23;1.00;;;10.90;99.90;;;;;;5045493;28;20206;-80
2021/11/23 11:04:20;;;;;;;5.83;1.13;;;10.90;99.90;;;;;;5046282;28;20537;-82
2021/11/23 11:06:49;;;;;;;6.53;1.33;;;10.80;99.90;;;;;;5046445;28;20194;-78
2021/11/23 11:09:19;;;;;;;8.90;1.80;;;10.90;99.90;;;;;;5045991;28;20201;-80
2021/11/23 11:11:45;;;;;;;6.77;1.50;;;10.90;99.90;;;;;;5043955;28;20593;-81
2021/11/23 11:14:14;;;;;;;4.87;1.47;;;11.00;99.90;;;;;;5042777;28;20220;-80
2021/11/23 11:16:42;;;;;;;4.47;0.90;;;11.00;99.90;;;;;;5043982;28;20225;-81
2021/11/23 11:19:11;;;;;;;5.63;1.17;;;11.00;99.90;;;;;;5044180;28;20202;-80
2021/11/23 11:21:41;;;;;;;4.87;1.20;;;11.10;99.90;;;;;;5044103;28;20320;-77
2021/11/23 11:24:29;;;;;;;4.90;1.30;;;11.10;99.90;;;;;;5043444;28;20894;-80
2021/11/23 11:27:04;;;;;;;4.63;1.10;;;11.30;99.90;;;;;;5044255;28;20950;-80
2021/11/23 11:29:31;;;;;;;4.83;1.13;;;11.30;99.90;;;;;;5043421;28;20209;-76
2021/11/23 11:32:00;;;;;;;5.70;1.53;;;11.40;99.90;;;;;;5045080;28;20361;-78
2021/11/23 11:34:31;;;;;;;5.67;1.17;;;11.40;99.90;;;;;;5042931;28;20519;-77
2021/11/23 11:37:11;;;;;;;4.87;0.80;;;11.50;99.90;;;;;;5044001;28;20225;-76
2021/11/23 11:40:01;;;;;;;2.90;0.90;;;11.60;99.90;;;;;;5043728;28;20770;-78
2021/11/23 11:42:53;;;;;;;5.27;1.33;;;11.70;99.90;;;;;;5044264;28;20292;-80
2021/11/23 11:45:22;;;;;;;2.53;0.90;;;11.80;99.90;;;;;;5046157;28;20273;-79
2021/11/23 11:47:51;;;;;;;4.13;1.10;;;12.00;99.90;;;;;;5044569;28;20681;-79
2021/11/23 11:50:21;;;;;;;4.13;0.70;;;12.10;99.90;;;;;;5045652;28;20238;-82
2021/11/23 11:53:09;;;;;;;5.37;0.90;;;12.20;99.90;;;;;;5045637;28;20209;-80
2021/11/23 11:55:53;;;;;;;5.57;0.90;;;12.30;99.90;;;;;;5046376;28;20225;-81
2021/11/23 11:58:48;;;;;;;3.13;0.73;;;12.30;99.90;;;;;;5047547;28;20421;-81
2021/11/23 12:01:31;;;;;;;1.00;0.50;;;12.20;99.90;;;;;;5047817;28;20317;-80
2021/11/23 12:04:09;;;;;;;1.70;0.70;;;12.00;99.90;;;;;;5046686;28;20235;-79
2021/11/23 12:07:06;;;;;;;2.20;0.50;;;11.90;99.90;;;;;;5047202;28;20550;-78
2021/11/23 12:09:34;;;;;;;3.33;0.60;;;11.80;99.90;;;;;;5047030;28;20224;-78
2021/11/23 12:12:38;;;;;;;1.90;0.40;;;11.70;99.90;;;;;;5047551;28;20209;-80
2021/11/23 12:15:30;;;;;;;4.97;1.00;;;11.70;99.90;;;;;;5039409;28;20312;-78
2021/11/23 12:18:14;;;;;;;3.40;1.17;;;11.80;99.90;;;;;;5047629;28;20225;-78
2021/11/23 12:20:56;;;;;;;5.73;1.50;;;11.90;99.90;;;;;;5049356;28;20209;-79
2021/11/23 12:23:32;;;;;;;3.33;0.90;;;12.00;99.90;;;;;;5047231;28;20704;-82
2021/11/23 12:26:01;;;;;;;5.63;1.10;;;12.00;99.90;;;;;;5048746;28;20195;-80
2021/11/23 12:28:32;;;;;;;2.67;1.10;;;11.90;99.90;;;;;;5048723;28;20211;-81
2021/11/23 12:31:05;;;;;;;3.87;1.10;;;11.90;99.90;;;;;;5048767;28;20833;-83
2021/11/23 12:33:32;;;;;;;5.00;1.40;;;11.80;99.90;;;;;;5047110;28;20229;-82
2021/11/23 12:35:59;;;;;;;4.43;1.20;;;11.70;99.90;;;;;;5055979;28;20221;-81
2021/11/23 12:38:29;;;;;;;4.07;0.97;;;11.60;99.90;;;;;;5066967;28;20212;-80
2021/11/23 12:40:57;;;;;;;7.23;1.27;;;11.70;99.90;;;;;;5057122;28;20214;-82
2021/11/23 12:43:37;;;;;;;2.97;0.90;;;11.70;99.90;;;;;;5047426;28;20210;-82
2021/11/23 12:46:13;;;;;;;8.77;1.00;;;11.80;99.90;;;;;;5046838;28;20315;-82
2021/11/23 12:48:41;;;;;;;7.43;1.37;;;11.80;99.90;;;;;;5048235;28;20304;-83
2021/11/23 12:51:26;;;;;;;3.37;0.70;;;11.80;99.90;;;;;;5046760;28;20210;-83
2021/11/23 12:53:57;;;;;;;4.67;1.00;;;11.90;99.90;;;;;;5040451;28;20216;-83
2021/11/23 12:56:41;;;;;;;2.67;0.80;;;11.90;99.90;;;;;;5047195;28;20265;-82
2021/11/23 12:59:30;;;;;;;6.13;1.60;;;11.80;99.90;;;;;;5047188;28;20598;-77
2021/11/23 13:01:59;;;;;;;4.43;1.93;;;11.70;99.90;;;;;;5047360;28;20599;-81